Time;durP1;ratioP1;P1;durP2;ratioP2;P2;SDS_P1;SDS_P2;PMS_P1;PMS_P2;Temp;Humidity;BMP_temperature;BMP_pressure;BME280_temperature;BME280_humidity;BME280_pressure;Samples;Min_cycle;Max_cycle;Signal;HPM_P1;HPM_P2
2023/01/09 00:02:22;;;;;;;4.32;1.27;;;8.50;99.90;;;;;;6314801;22;20122;-83
2023/01/09 00:04:48;;;;;;;4.38;1.30;;;8.40;99.90;;;;;;6315071;22;20026;-82
2023/01/09 00:07:14;;;;;;;5.05;1.02;;;8.60;99.90;;;;;;6315244;22;20011;-82
2023/01/09 00:09:39;;;;;;;4.05;1.20;;;8.50;99.90;;;;;;6315133;22;20013;-82
2023/01/09 00:12:05;;;;;;;3.85;1.02;;;8.50;99.90;;;;;;6342572;22;20069;-82
2023/01/09 00:14:31;;;;;;;4.70;1.23;;;8.50;99.90;;;;;;6342627;22;20026;-81
2023/01/09 00:16:57;;;;;;;4.15;0.93;;;8.50;99.90;;;;;;6342433;22;20020;-81
2023/01/09 00:19:25;;;;;;;4.65;0.95;;;8.50;99.90;;;;;;6316088;22;20141;-81
2023/01/09 01:14:51;;;;;;;2.95;0.57;;;8.40;99.90;;;;;;5795923;24;20019;-82
2023/01/09 01:17:19;;;;;;;1.70;0.30;;;8.40;99.90;;;;;;6047492;23;20068;-83
2023/01/09 01:19:45;;;;;;;1.25;0.40;;;8.30;99.90;;;;;;6164667;23;20009;-83
2023/01/09 01:22:11;;;;;;;1.20;0.43;;;8.30;99.90;;;;;;6235858;23;20054;-83
2023/01/09 01:24:39;;;;;;;2.70;0.55;;;8.30;99.90;;;;;;6224597;23;20030;-83
2023/01/09 01:27:30;;;;;;;2.20;0.43;;;8.20;99.90;;;;;;6250485;23;20031;-83
2023/01/09 02:16:17;;;;;;;2.05;0.40;;;7.90;99.90;;;;;;6272426;22;20317;-82
2023/01/09 02:19:45;;;;;;;;;;;;;;;;;;;;;
2023/01/09 06:08:06;;;;;;;1.50;0.47;;;7.10;99.90;;;;;;6276927;22;20035;-79
2023/01/09 06:10:32;;;;;;;2.10;0.63;;;7.10;99.90;;;;;;6313711;22;20007;-79
2023/01/09 06:12:58;;;;;;;3.67;0.98;;;7.10;99.90;;;;;;6313543;22;20448;-78
2023/01/09 06:15:23;;;;;;;1.95;0.52;;;7.10;99.90;;;;;;6314262;22;20122;-78
2023/01/09 06:17:49;;;;;;;2.63;0.60;;;7.10;99.90;;;;;;6313051;22;20092;-79
2023/01/09 06:31:33;;;;;;;2.95;0.68;;;7.00;99.90;;;;;;6058727;23;20007;-83
2023/01/09 07:17:19;;;;;;;3.60;0.88;;;7.00;99.90;;;;;;5806799;24;20030;-82
2023/01/09 07:19:44;;;;;;;2.60;0.60;;;7.00;99.90;;;;;;5880215;24;20009;-81
2023/01/09 07:23:06;;;;;;;;;;;;;;;;;;;;;
2023/01/09 07:25:38;;;;;;;1.60;0.70;;;7.00;99.90;;;;;;5947112;24;20084;-82
2023/01/09 07:28:07;;;;;;;3.78;0.70;;;7.00;99.90;;;;;;6082785;23;20414;-81
2023/01/09 07:30:32;;;;;;;3.58;0.93;;;7.00;99.90;;;;;;6239410;22;20015;-82
2023/01/09 07:32:58;;;;;;;2.63;0.93;;;7.00;99.90;;;;;;6254763;22;20003;-80
2023/01/09 07:35:26;;;;;;;2.22;0.60;;;7.00;99.90;;;;;;6281748;22;20379;-82
2023/01/09 07:38:15;;;;;;;4.55;1.10;;;7.00;99.90;;;;;;6253533;22;20015;-83
2023/01/09 07:40:41;;;;;;;3.10;0.88;;;7.00;99.90;;;;;;6239018;22;20003;-81
2023/01/09 08:04:51;;;;;;;3.47;0.85;;;6.90;99.90;;;;;;5902088;24;20018;-86
2023/01/09 08:07:37;;;;;;;2.78;0.90;;;6.90;99.90;;;;;;5902646;24;20005;-88
2023/01/09 08:10:18;;;;;;;2.53;0.50;;;6.90;99.90;;;;;;5923724;24;20034;-85
2023/01/09 08:23:19;;;;;;;1.75;0.57;;;6.90;99.90;;;;;;6009404;23;20058;-86
2023/01/09 08:25:46;;;;;;;3.83;0.80;;;;;;;;;;6274727;22;20038;-86
2023/01/09 08:28:13;;;;;;;3.80;0.77;;;;;;;;;;6285584;22;19999;-87
2023/01/09 08:30:39;;;;;;;3.15;0.60;;;;;;;;;;6285695;22;19999;-89
2023/01/09 08:33:25;;;;;;;;;;;;;;;;;;;;;
2023/01/09 08:36:21;;;;;;;2.15;0.93;;;;;;;;;;6313309;22;20063;-89
2023/01/09 08:56:35;;;;;;;;;;;;;;;;;;;;;
2023/01/09 08:59:40;;;;;;;;;;;;;;;;;;;;;
2023/01/09 09:10:56;;;;;;;2.35;0.65;;;7.20;99.90;;;;;;5932862;24;20053;-88
2023/01/09 09:17:15;;;;;;;;;;;;;;;;;;;;;
2023/01/09 09:23:03;;;;;;;4.85;0.90;;;7.20;99.90;;;;;;6070172;23;20018;-85
2023/01/09 09:25:30;;;;;;;1.80;0.70;;;7.20;99.90;;;;;;6070405;23;20017;-86
2023/01/09 09:27:56;;;;;;;3.28;0.98;;;7.30;99.90;;;;;;6269249;22;20010;-86
2023/01/09 09:30:23;;;;;;;2.88;0.85;;;7.30;99.90;;;;;;6310398;22;20078;-85
2023/01/09 09:32:49;;;;;;;2.65;0.80;;;7.30;99.90;;;;;;6312286;22;20048;-85
2023/01/09 09:35:19;;;;;;;3.20;0.80;;;7.30;99.90;;;;;;6310949;22;20037;-85
2023/01/09 09:37:56;;;;;;;2.70;0.70;;;7.50;99.90;;;;;;6313002;22;20094;-86
2023/01/09 09:44:41;;;;;;;2.58;0.70;;;7.50;99.90;;;;;;6313040;22;20026;-86
2023/01/09 09:47:46;;;;;;;;;;;;;;;;;;;;;
2023/01/09 09:50:43;;;;;;;;;;;;;;;;;;;;;
2023/01/09 10:07:45;;;;;;;3.17;0.75;;;8.10;99.90;;;;;;6072237;23;20013;-90
2023/01/09 10:10:40;;;;;;;2.88;0.70;;;8.10;99.90;;;;;;6009292;23;20033;-70
2023/01/09 10:16:24;;;;;;;5.03;0.88;;;8.20;99.90;;;;;;6337578;22;20518;-70
2023/01/09 10:19:18;;;;;;;3.58;0.93;;;8.20;99.90;;;;;;6345254;22;20005;-70
2023/01/09 10:22:10;;;;;;;2.90;0.60;;;8.20;99.90;;;;;;6345369;22;20002;-71
2023/01/09 10:24:47;;;;;;;4.85;0.93;;;8.20;99.90;;;;;;6317243;22;20006;-71
2023/01/09 10:27:26;;;;;;;4.55;0.93;;;8.20;99.90;;;;;;6344677;22;20449;-70
2023/01/09 10:29:57;;;;;;;4.47;0.95;;;8.20;99.90;;;;;;6344818;22;20018;-71
2023/01/09 10:32:49;;;;;;;4.43;1.00;;;8.30;99.90;;;;;;6344656;22;20001;-70
2023/01/09 10:35:18;;;;;;;2.90;0.80;;;8.30;99.90;;;;;;6342123;22;20353;-73
2023/01/09 10:37:46;;;;;;;6.95;0.90;;;8.30;99.90;;;;;;6341986;22;20001;-73
2023/01/09 10:40:14;;;;;;;3.53;0.70;;;8.40;99.90;;;;;;6343702;22;20006;-73
2023/01/09 10:42:47;;;;;;;3.33;0.50;;;8.40;99.90;;;;;;6343212;22;20002;-73
2023/01/09 10:45:30;;;;;;;3.25;0.90;;;8.50;99.90;;;;;;6342720;22;19999;-72
2023/01/09 10:48:03;;;;;;;1.55;0.43;;;8.50;99.90;;;;;;6343280;22;20053;-74
2023/01/09 10:50:34;;;;;;;;;;;8.60;99.90;;;;;;6343850;22;20078;-74
2023/01/09 10:53:13;;;;;;;5.57;0.82;;;8.70;99.90;;;;;;6343476;22;19898;-74
2023/01/09 10:55:46;;;;;;;1.60;0.70;;;8.70;99.90;;;;;;6342321;22;20030;-74
2023/01/09 10:58:12;;;;;;;;;;;8.80;99.90;;;;;;6343432;22;20002;-73
2023/01/09 11:00:38;;;;;;;5.20;1.08;;;8.80;99.90;;;;;;6315583;22;19920;-73
2023/01/09 11:03:05;;;;;;;4.47;1.25;;;8.80;99.90;;;;;;6343081;22;19998;-73
2023/01/09 11:05:30;;;;;;;2.03;0.52;;;8.90;99.90;;;;;;6342562;22;20074;-72
2023/01/09 11:08:25;;;;;;;3.25;0.80;;;8.90;99.90;;;;;;6342761;22;20048;-72
2023/01/09 11:10:53;;;;;;;3.72;0.77;;;9.00;99.90;;;;;;6343447;22;20420;-72
2023/01/09 11:13:20;;;;;;;2.92;0.75;;;9.00;99.90;;;;;;6342738;22;19999;-72
2023/01/09 11:16:06;;;;;;;1.40;0.63;;;9.10;99.90;;;;;;6307502;22;20016;-72
2023/01/09 11:18:36;;;;;;;3.72;0.82;;;9.00;99.90;;;;;;6279698;22;20000;-70
2023/01/09 11:21:13;;;;;;;3.88;0.90;;;9.10;99.90;;;;;;6281277;22;20531;-71
2023/01/09 11:23:39;;;;;;;2.90;0.93;;;9.10;99.90;;;;;;6279828;22;20067;-71
2023/01/09 11:26:04;;;;;;;4.80;0.93;;;9.10;99.90;;;;;;6280821;22;20070;-70
2023/01/09 11:28:30;;;;;;;6.82;1.08;;;9.20;99.90;;;;;;6280240;22;20371;-71
2023/01/09 11:31:01;;;;;;;4.28;0.90;;;9.20;99.90;;;;;;6280774;22;19999;-70
2023/01/09 11:33:30;;;;;;;7.43;1.27;;;9.30;99.90;;;;;;6281956;22;20007;-72
2023/01/09 11:35:56;;;;;;;3.53;0.82;;;9.30;99.90;;;;;;6282091;22;20027;-70
2023/01/09 11:38:22;;;;;;;4.53;1.10;;;9.30;99.90;;;;;;6282205;22;20053;-70
2023/01/09 11:40:56;;;;;;;3.60;1.30;;;9.40;99.90;;;;;;6280469;22;20010;-70
2023/01/09 11:43:33;;;;;;;4.45;1.17;;;9.40;99.90;;;;;;6281915;22;20060;-70
2023/01/09 11:46:02;;;;;;;6.10;1.05;;;9.50;99.90;;;;;;6280444;22;20003;-70
2023/01/09 11:48:29;;;;;;;7.05;1.17;;;9.50;99.90;;;;;;6281700;22;20000;-70
2023/01/09 11:50:57;;;;;;;3.88;1.33;;;9.50;99.90;;;;;;6279782;22;20000;-70
2023/01/09 11:53:24;;;;;;;4.45;1.17;;;9.50;99.90;;;;;;6282130;22;20053;-71
2023/01/09 11:55:57;;;;;;;2.55;1.08;;;9.50;99.90;;;;;;6282141;22;20003;-71
2023/01/09 11:58:23;;;;;;;2.63;0.82;;;9.60;99.90;;;;;;6281631;22;20008;-73
2023/01/09 12:01:01;;;;;;;4.20;0.90;;;9.70;99.90;;;;;;6281914;22;20034;-71
2023/01/09 12:03:55;;;;;;;2.50;0.98;;;9.80;99.90;;;;;;6281714;22;20332;-73
2023/01/09 12:06:37;;;;;;;3.25;1.02;;;9.80;99.90;;;;;;6280005;22;20004;-72
2023/01/09 12:09:06;;;;;;;4.15;1.17;;;9.60;99.90;;;;;;6281937;22;20110;-71
2023/01/09 12:11:48;;;;;;;2.83;0.60;;;9.50;99.90;;;;;;6281348;22;20026;-72
2023/01/09 12:14:39;;;;;;;2.83;0.60;;;9.40;99.90;;;;;;6283050;22;20394;-70
2023/01/09 12:17:23;;;;;;;3.30;0.80;;;9.40;99.90;;;;;;6312727;22;20424;-72
2023/01/09 12:19:55;;;;;;;1.08;0.40;;;9.50;99.90;;;;;;6311910;22;20011;-70
2023/01/09 12:22:23;;;;;;;6.18;0.82;;;9.40;99.90;;;;;;6312258;22;20170;-71
2023/01/09 12:25:10;;;;;;;2.38;0.57;;;9.30;99.90;;;;;;6312242;22;20026;-70
2023/01/09 12:27:55;;;;;;;2.55;0.50;;;9.10;99.90;;;;;;6312160;22;19995;-69
2023/01/09 12:30:30;;;;;;;3.38;0.45;;;8.70;99.90;;;;;;6284678;22;20436;-69
2023/01/09 12:33:24;;;;;;;2.50;0.47;;;8.30;99.90;;;;;;6312402;22;20000;-70
2023/01/09 12:36:07;;;;;;;3.63;0.47;;;8.10;99.90;;;;;;6281891;22;20034;-68
2023/01/09 12:38:58;;;;;;;2.05;0.40;;;7.90;99.90;;;;;;6306992;22;20010;-69
2023/01/09 12:41:36;;;;;;;1.63;0.43;;;7.90;99.90;;;;;;6311053;22;19995;-69
2023/01/09 12:44:02;;;;;;;1.13;0.50;;;7.90;99.90;;;;;;6310933;22;20088;-69
2023/01/09 12:46:45;;;;;;;4.60;0.63;;;7.80;99.90;;;;;;6310249;22;19999;-70
2023/01/09 12:49:22;;;;;;;3.83;0.60;;;7.80;99.90;;;;;;6310789;22;20374;-69
2023/01/09 12:52:00;;;;;;;2.83;0.60;;;7.80;99.90;;;;;;6311009;22;20218;-70
2023/01/09 12:55:03;;;;;;;3.30;1.00;;;7.80;99.90;;;;;;6311097;22;20340;-69
2023/01/09 12:57:34;;;;;;;2.75;0.68;;;7.80;99.90;;;;;;6309564;22;19999;-69
2023/01/09 13:00:13;;;;;;;2.05;0.65;;;7.80;99.90;;;;;;6310885;22;20007;-68
2023/01/09 13:02:53;;;;;;;1.05;0.38;;;7.80;99.90;;;;;;6283290;22;20370;-68
2023/01/09 13:05:30;;;;;;;2.35;0.73;;;7.90;99.90;;;;;;6283384;22;20026;-69
2023/01/09 13:08:07;;;;;;;3.58;1.00;;;7.90;99.90;;;;;;6308034;22;19999;-67
2023/01/09 13:10:37;;;;;;;1.98;0.60;;;8.00;99.90;;;;;;6310571;22;19995;-70
2023/01/09 13:13:13;;;;;;;1.33;0.60;;;8.00;99.90;;;;;;6310640;22;20026;-70
2023/01/09 13:15:44;;;;;;;5.47;1.08;;;8.20;99.90;;;;;;6278133;22;20019;-68
2023/01/09 13:18:18;;;;;;;1.48;0.73;;;8.30;99.90;;;;;;6278555;22;19999;-68
2023/01/09 13:20:45;;;;;;;2.03;0.63;;;8.60;99.90;;;;;;6279959;22;20007;-68
2023/01/09 13:23:34;;;;;;;3.60;1.15;;;8.80;99.90;;;;;;6277989;22;20004;-68
2023/01/09 13:26:07;;;;;;;3.00;1.55;;;8.80;99.90;;;;;;6276182;22;20052;-69
2023/01/09 13:28:51;;;;;;;2.10;0.38;;;8.70;99.90;;;;;;6278465;22;20433;-68
2023/01/09 13:31:36;;;;;;;1.27;0.50;;;8.60;99.90;;;;;;6278302;22;20376;-68
2023/01/09 13:34:04;;;;;;;1.85;0.60;;;8.40;99.90;;;;;;6280143;22;20083;-69
2023/01/09 13:36:38;;;;;;;1.63;0.38;;;8.20;99.90;;;;;;6277448;22;20077;-68
2023/01/09 13:39:04;;;;;;;3.28;0.40;;;8.00;99.90;;;;;;6280115;22;20014;-69
2023/01/09 13:44:27;;;;;;;1.15;0.50;;;7.90;99.90;;;;;;6279683;22;20019;-71
2023/01/09 13:47:02;;;;;;;4.90;0.68;;;7.80;99.90;;;;;;6278354;22;20065;-69
2023/01/09 13:49:39;;;;;;;2.70;0.60;;;7.80;99.90;;;;;;6278337;22;20028;-70
2023/01/09 13:52:35;;;;;;;3.15;0.65;;;7.80;99.90;;;;;;6277643;22;20079;-71
2023/01/09 13:55:22;;;;;;;1.80;0.57;;;7.90;99.90;;;;;;6279832;22;20056;-72
2023/01/09 13:58:04;;;;;;;3.17;0.63;;;8.00;99.90;;;;;;6276836;22;20032;-69
2023/01/09 14:00:35;;;;;;;3.63;0.98;;;8.00;99.90;;;;;;6279437;22;20000;-69
2023/01/09 14:03:07;;;;;;;3.15;0.88;;;8.10;99.90;;;;;;6277882;22;20344;-71
2023/01/09 14:05:32;;;;;;;2.90;0.75;;;8.20;99.90;;;;;;6279773;22;20070;-69
2023/01/09 14:08:26;;;;;;;4.18;0.85;;;8.30;99.90;;;;;;6276272;22;19999;-69
2023/01/09 14:11:00;;;;;;;2.28;0.80;;;8.40;99.90;;;;;;6274833;22;20004;-69
2023/01/09 14:13:32;;;;;;;5.22;0.90;;;8.50;99.90;;;;;;6277586;22;20008;-68
2023/01/09 14:16:14;;;;;;;3.83;0.90;;;8.60;99.90;;;;;;6303448;22;20018;-68
2023/01/09 14:19:05;;;;;;;4.93;0.80;;;8.70;99.90;;;;;;6309573;22;19999;-73
2023/01/09 14:21:51;;;;;;;3.15;0.82;;;8.80;99.90;;;;;;6310297;22;20007;-67
2023/01/09 14:24:31;;;;;;;1.33;0.70;;;8.90;99.90;;;;;;6313634;22;19999;-69
2023/01/09 14:26:59;;;;;;;2.20;0.75;;;8.90;99.90;;;;;;6313281;22;20330;-70
2023/01/09 14:29:28;;;;;;;2.42;0.80;;;9.00;99.90;;;;;;6311283;22;20018;-69
2023/01/09 14:32:19;;;;;;;2.85;0.60;;;9.00;99.90;;;;;;6311784;22;19999;-69
2023/01/09 14:35:07;;;;;;;2.45;0.70;;;9.00;99.90;;;;;;6312187;22;20070;-72
2023/01/09 14:37:35;;;;;;;3.17;0.65;;;9.00;99.90;;;;;;6263673;22;19995;-69
2023/01/09 14:40:01;;;;;;;1.33;0.60;;;9.00;99.90;;;;;;6311510;22;20058;-68
2023/01/09 14:42:29;;;;;;;3.05;0.68;;;9.10;99.90;;;;;;6284531;22;20003;-69
2023/01/09 14:45:35;;;;;;;3.65;0.85;;;9.10;99.90;;;;;;6311682;22;20003;-68
2023/01/09 14:48:04;;;;;;;2.40;0.70;;;9.20;99.90;;;;;;6277820;22;20008;-70
2023/01/09 14:50:35;;;;;;;3.25;0.75;;;9.30;99.90;;;;;;6311663;22;19999;-70
2023/01/09 14:53:30;;;;;;;4.32;1.00;;;9.30;99.90;;;;;;6284632;22;20003;-70
2023/01/09 14:56:07;;;;;;;4.15;0.70;;;9.40;99.90;;;;;;6303366;22;20007;-70
2023/01/09 14:58:34;;;;;;;4.63;0.98;;;9.40;99.90;;;;;;6310859;22;20007;-68
2023/01/09 15:01:17;;;;;;;3.63;0.90;;;9.50;99.90;;;;;;6310929;22;20403;-68
2023/01/09 15:03:50;;;;;;;6.95;1.63;;;9.50;99.90;;;;;;6311928;22;20034;-68
2023/01/09 15:06:26;;;;;;;4.43;0.80;;;9.50;99.90;;;;;;6283597;22;19999;-68
2023/01/09 15:09:01;;;;;;;2.25;0.65;;;9.50;99.90;;;;;;6283531;22;20479;-69
2023/01/09 15:11:28;;;;;;;4.32;0.80;;;9.60;99.90;;;;;;6284204;22;19999;-69
2023/01/09 15:13:57;;;;;;;1.85;0.70;;;9.60;99.90;;;;;;6311500;22;20038;-69
2023/01/09 15:16:25;;;;;;;1.90;0.52;;;9.60;99.90;;;;;;6310729;22;20025;-69
2023/01/09 15:19:00;;;;;;;2.05;0.40;;;9.60;99.90;;;;;;6310407;22;20007;-69
2023/01/09 15:21:31;;;;;;;1.90;0.60;;;9.60;99.90;;;;;;6310880;22;20003;-70
2023/01/09 15:24:21;;;;;;;2.03;0.60;;;9.50;99.90;;;;;;6283963;22;20014;-70
2023/01/09 15:26:59;;;;;;;2.50;0.50;;;9.50;99.90;;;;;;6283720;22;20428;-69
2023/01/09 15:29:27;;;;;;;3.35;0.40;;;9.50;99.90;;;;;;6310265;22;20074;-70
2023/01/09 15:32:11;;;;;;;2.83;0.70;;;9.40;99.90;;;;;;6310787;22;20003;-70
2023/01/09 15:34:38;;;;;;;4.28;0.73;;;9.40;99.90;;;;;;6310222;22;20352;-69
2023/01/09 15:37:17;;;;;;;4.50;0.80;;;9.40;99.90;;;;;;6284031;22;20479;-68
2023/01/09 15:39:42;;;;;;;3.83;0.50;;;9.50;99.90;;;;;;6310725;22;20003;-68
2023/01/09 15:45:21;;;;;;;2.42;0.63;;;9.50;99.90;;;;;;6312836;22;20055;-69
2023/01/09 15:47:47;;;;;;;2.25;0.43;;;9.40;99.90;;;;;;6283655;22;19999;-72
2023/01/09 15:50:15;;;;;;;1.90;0.43;;;9.40;99.90;;;;;;6313084;22;19996;-67
2023/01/09 15:52:41;;;;;;;1.63;0.45;;;9.30;99.90;;;;;;6312654;22;20000;-68
2023/01/09 15:55:35;;;;;;;2.80;0.43;;;9.20;99.90;;;;;;6285619;22;20471;-68
2023/01/09 15:58:02;;;;;;;1.25;0.40;;;9.10;99.90;;;;;;6312251;22;20124;-69
2023/01/09 16:00:28;;;;;;;1.83;0.52;;;9.10;99.90;;;;;;6285861;22;20006;-69
2023/01/09 16:03:10;;;;;;;1.15;0.22;;;9.00;99.90;;;;;;6311949;22;20328;-69
2023/01/09 16:05:46;;;;;;;1.10;0.50;;;9.00;99.90;;;;;;6312765;22;19995;-68
2023/01/09 16:08:25;;;;;;;0.98;0.40;;;8.90;99.90;;;;;;6312396;22;20002;-69
2023/01/09 16:10:57;;;;;;;0.82;0.30;;;8.90;99.90;;;;;;6312611;22;20002;-68
2023/01/09 16:13:26;;;;;;;0.68;0.30;;;8.80;99.90;;;;;;6312412;22;20003;-68
2023/01/09 16:15:53;;;;;;;2.00;0.40;;;8.80;99.90;;;;;;6311896;22;20015;-67
2023/01/09 16:18:31;;;;;;;1.80;0.35;;;8.70;99.90;;;;;;6312698;22;20007;-75
2023/01/09 16:21:02;;;;;;;1.17;0.38;;;8.70;99.90;;;;;;6284920;22;20425;-73
2023/01/09 16:23:31;;;;;;;1.63;0.40;;;8.70;99.90;;;;;;6312459;22;20003;-69
2023/01/09 16:26:18;;;;;;;2.35;0.57;;;8.60;99.90;;;;;;6312711;22;20023;-71
2023/01/09 16:28:44;;;;;;;1.35;0.38;;;8.60;99.90;;;;;;6312364;22;19999;-71
2023/01/09 16:31:28;;;;;;;1.58;0.50;;;8.60;99.90;;;;;;6309428;22;20577;-71
2023/01/09 16:34:03;;;;;;;2.47;0.93;;;8.50;99.90;;;;;;6311416;22;20010;-72
2023/01/09 16:36:29;;;;;;;2.63;0.60;;;8.50;99.90;;;;;;6310565;22;20074;-72
2023/01/09 16:38:56;;;;;;;4.75;1.00;;;8.50;99.90;;;;;;6311295;22;20007;-71
2023/01/09 16:44:08;;;;;;;4.60;1.08;;;8.50;99.90;;;;;;6310841;22;20030;-71
2023/01/09 16:46:42;;;;;;;3.50;1.08;;;8.50;99.90;;;;;;6310531;22;19995;-71
2023/01/09 16:49:27;;;;;;;4.22;1.10;;;8.50;99.90;;;;;;6311226;22;19995;-72
2023/01/09 16:51:53;;;;;;;3.97;1.02;;;8.50;99.90;;;;;;6282184;22;20009;-72
2023/01/09 16:54:19;;;;;;;3.25;1.00;;;8.50;99.90;;;;;;6311247;22;19999;-72
2023/01/09 16:56:52;;;;;;;2.67;0.70;;;8.50;99.90;;;;;;6283321;22;20081;-72
2023/01/09 16:59:20;;;;;;;4.55;0.80;;;8.50;99.90;;;;;;6283177;22;20078;-72
2023/01/09 17:01:47;;;;;;;2.35;0.93;;;8.40;99.90;;;;;;6308611;22;20378;-72
2023/01/09 17:04:14;;;;;;;3.40;0.80;;;8.50;99.90;;;;;;6310845;22;19999;-72
2023/01/09 17:06:40;;;;;;;3.30;0.90;;;8.40;99.90;;;;;;6283580;22;19999;-72
2023/01/09 17:09:18;;;;;;;3.03;1.00;;;8.40;99.90;;;;;;6283628;22;20003;-71
2023/01/09 17:12:27;;;;;;;;;;;;;;;;;;;;;
2023/01/09 17:15:02;;;;;;;4.55;1.10;;;8.40;99.90;;;;;;6310465;22;20078;-81
2023/01/09 17:17:50;;;;;;;2.65;0.80;;;8.40;99.90;;;;;;6310477;22;20007;-81
2023/01/09 17:20:28;;;;;;;4.32;1.05;;;8.30;99.90;;;;;;6283727;22;20057;-84
2023/01/09 17:22:59;;;;;;;3.30;1.05;;;8.30;99.90;;;;;;6282395;22;20011;-82
2023/01/09 17:31:21;;;;;;;2.25;1.02;;;8.00;99.90;;;;;;6214399;23;20522;-82
2023/01/09 17:33:52;;;;;;;3.28;1.00;;;8.10;99.90;;;;;;6265351;22;20033;-80
2023/01/09 17:36:27;;;;;;;3.97;1.30;;;8.00;99.90;;;;;;6283176;22;20003;-81
2023/01/09 17:38:55;;;;;;;4.93;1.38;;;8.00;99.90;;;;;;6283520;22;20027;-81
2023/01/09 17:41:27;;;;;;;2.65;1.13;;;8.00;99.90;;;;;;6282610;22;20018;-82
2023/01/09 17:44:03;;;;;;;2.30;1.10;;;8.00;99.90;;;;;;6310042;22;20044;-82
2023/01/09 17:46:54;;;;;;;3.13;1.17;;;7.90;99.90;;;;;;6310795;22;20066;-82
2023/01/09 17:49:29;;;;;;;2.80;1.15;;;7.90;99.90;;;;;;6283435;22;19999;-81
2023/01/09 17:51:58;;;;;;;4.13;1.30;;;7.90;99.90;;;;;;6282653;22;19999;-81
2023/01/09 17:54:36;;;;;;;;;;;;;;;;;;;;;
2023/01/09 17:57:16;;;;;;;6.40;1.38;;;7.90;99.90;;;;;;6313659;22;20061;-82
2023/01/09 17:59:49;;;;;;;5.03;1.50;;;7.90;99.90;;;;;;6285674;22;20004;-80
2023/01/09 18:02:19;;;;;;;;;;;7.80;99.90;;;;;;6286475;22;20003;-82
2023/01/09 18:04:52;;;;;;;2.80;1.05;;;7.80;99.90;;;;;;6314610;22;19906;-82
2023/01/09 18:07:33;;;;;;;2.97;1.20;;;7.80;99.90;;;;;;6314852;22;20459;-82
2023/01/09 18:10:08;;;;;;;3.38;1.20;;;7.80;99.90;;;;;;6287836;22;20516;-82
2023/01/09 18:12:33;;;;;;;2.63;1.00;;;7.90;99.90;;;;;;6312054;22;19995;-79
2023/01/09 18:15:20;;;;;;;2.50;0.85;;;7.80;99.90;;;;;;6285583;22;20120;-78
2023/01/09 18:20:44;;;;;;;3.50;1.00;;;7.80;99.90;;;;;;6293808;22;20007;-81
2023/01/09 18:23:11;;;;;;;2.58;1.15;;;7.80;99.90;;;;;;6310727;22;20305;-79
2023/01/09 18:25:54;;;;;;;3.25;1.25;;;7.90;99.90;;;;;;6312397;22;20074;-81
2023/01/09 18:28:22;;;;;;;;;;;7.80;99.90;;;;;;6313852;22;19996;-80
2023/01/09 18:30:51;;;;;;;2.40;1.10;;;7.80;99.90;;;;;;6286742;22;19906;-80
2023/01/09 18:33:37;;;;;;;2.30;1.20;;;7.80;99.90;;;;;;6285946;22;20003;-80
2023/01/09 18:36:11;;;;;;;3.25;1.13;;;7.80;99.90;;;;;;6313229;22;19999;-81
2023/01/09 18:41:50;;;;;;;3.92;1.17;;;7.80;99.90;;;;;;6313480;22;20022;-81
2023/01/09 18:44:28;;;;;;;3.83;1.13;;;7.70;99.90;;;;;;6312945;22;20428;-78
2023/01/09 18:47:29;;;;;;;2.88;1.10;;;7.70;99.90;;;;;;6285480;22;20467;-81
2023/01/09 18:49:54;;;;;;;3.53;1.10;;;7.70;99.90;;;;;;6285393;22;20340;-80
2023/01/09 18:52:23;;;;;;;2.95;1.58;;;7.70;99.90;;;;;;6313560;22;20000;-81
2023/01/09 18:54:53;;;;;;;3.50;1.38;;;7.70;99.90;;;;;;6285903;22;20009;-80
2023/01/09 18:57:24;;;;;;;4.03;1.52;;;7.80;99.90;;;;;;6285710;22;20007;-80
2023/01/09 19:00:16;;;;;;;4.22;1.88;;;7.80;99.90;;;;;;6285405;22;20003;-80
2023/01/09 19:02:44;;;;;;;5.90;1.63;;;7.80;99.90;;;;;;6311742;22;20444;-77
2023/01/09 19:05:14;;;;;;;5.57;1.63;;;7.80;99.90;;;;;;6311478;22;20340;-78
2023/01/09 19:07:40;;;;;;;1.92;1.10;;;7.70;99.90;;;;;;6313295;22;20497;-78
2023/01/09 19:10:15;;;;;;;2.22;1.13;;;7.70;99.90;;;;;;6310582;22;20031;-77
2023/01/09 19:12:43;;;;;;;3.15;1.30;;;7.70;99.90;;;;;;6282985;22;20003;-78
2023/01/09 19:15:10;;;;;;;4.05;1.30;;;7.70;99.90;;;;;;6311038;22;20059;-77
2023/01/09 19:17:45;;;;;;;2.17;1.05;;;7.70;99.90;;;;;;6312009;22;20470;-80
2023/01/09 19:20:23;;;;;;;5.47;1.60;;;7.70;99.90;;;;;;6314527;22;20003;-80
2023/01/09 19:23:19;;;;;;;;;;;;;;;;;;;;;
2023/01/09 19:26:45;;;;;;;4.35;1.48;;;7.70;99.90;;;;;;6316655;22;20054;-80
2023/01/09 19:32:33;;;;;;;3.83;1.45;;;7.70;99.90;;;;;;6289184;22;20070;-79
2023/01/09 19:35:08;;;;;;;3.90;1.52;;;7.70;99.90;;;;;;6284013;22;20007;-78
2023/01/09 19:37:41;;;;;;;4.55;1.40;;;7.70;99.90;;;;;;6283319;22;20011;-79
2023/01/09 19:40:09;;;;;;;3.15;1.60;;;7.60;99.90;;;;;;6311798;22;19999;-78
2023/01/09 19:43:02;;;;;;;4.28;1.63;;;7.60;99.90;;;;;;6312546;22;20010;-76
2023/01/09 19:45:37;;;;;;;4.40;1.42;;;7.60;99.90;;;;;;6283491;22;20465;-78
2023/01/09 19:48:03;;;;;;;3.15;1.58;;;7.60;99.90;;;;;;6308551;22;20003;-77
2023/01/09 19:50:33;;;;;;;2.78;1.15;;;7.60;99.90;;;;;;6282067;22;19999;-76
2023/01/09 19:53:02;;;;;;;3.35;1.17;;;7.60;99.90;;;;;;6311505;22;20447;-77
2023/01/09 19:55:30;;;;;;;3.83;1.38;;;7.60;99.90;;;;;;6284138;22;20087;-77
2023/01/09 19:57:56;;;;;;;2.67;1.30;;;7.60;99.90;;;;;;6311111;22;19999;-77
2023/01/09 20:00:22;;;;;;;6.43;1.90;;;7.60;99.90;;;;;;6310809;22;20027;-78
2023/01/09 20:02:50;;;;;;;4.13;1.38;;;7.60;99.90;;;;;;6311424;22;20325;-75
2023/01/09 20:05:16;;;;;;;4.15;1.60;;;7.60;99.90;;;;;;6310956;22;20003;-76
2023/01/09 20:07:47;;;;;;;3.60;1.40;;;7.50;99.90;;;;;;6311434;22;20002;-76
2023/01/09 20:10:29;;;;;;;3.85;1.25;;;7.50;99.90;;;;;;6311064;22;19996;-77
2023/01/09 20:12:54;;;;;;;4.90;1.45;;;7.60;99.90;;;;;;6310222;22;20007;-76
2023/01/09 20:15:21;;;;;;;4.45;1.60;;;7.50;99.90;;;;;;6310993;22;20022;-76
2023/01/09 20:17:47;;;;;;;3.55;1.23;;;7.60;99.90;;;;;;6285089;22;20007;-75
2023/01/09 20:20:12;;;;;;;4.32;1.52;;;7.60;99.90;;;;;;6311690;22;19995;-76
2023/01/09 20:22:40;;;;;;;2.97;1.27;;;7.50;99.90;;;;;;6310718;22;20009;-76
2023/01/09 20:25:09;;;;;;;3.95;1.42;;;7.50;99.90;;;;;;6312041;22;20003;-76
2023/01/09 20:27:34;;;;;;;5.63;1.73;;;7.50;99.90;;;;;;6312217;22;19999;-77
2023/01/09 20:30:00;;;;;;;2.60;1.30;;;7.50;99.90;;;;;;6312365;22;20006;-76
2023/01/09 20:32:28;;;;;;;4.97;1.30;;;7.50;99.90;;;;;;6312440;22;20001;-76
2023/01/09 20:34:54;;;;;;;4.35;1.38;;;7.40;99.90;;;;;;6284678;22;20515;-76
2023/01/09 20:37:19;;;;;;;4.28;1.42;;;7.40;99.90;;;;;;6310918;22;20003;-76
2023/01/09 20:39:46;;;;;;;2.80;1.20;;;7.40;99.90;;;;;;6312248;22;20336;-76
2023/01/09 20:42:11;;;;;;;2.65;1.17;;;7.40;99.90;;;;;;6310110;22;20090;-75
2023/01/09 20:44:37;;;;;;;2.38;0.98;;;7.40;99.90;;;;;;6312336;22;20447;-75
2023/01/09 20:47:02;;;;;;;2.88;1.13;;;7.40;99.90;;;;;;6312156;22;19995;-75
2023/01/09 20:49:28;;;;;;;5.50;1.33;;;7.40;99.90;;;;;;6284844;22;19999;-75
2023/01/09 20:51:54;;;;;;;2.40;0.95;;;7.40;99.90;;;;;;6312600;22;19999;-75
2023/01/09 20:54:20;;;;;;;3.63;1.13;;;7.40;99.90;;;;;;6284825;22;20003;-75
2023/01/09 20:56:46;;;;;;;2.28;0.98;;;7.40;99.90;;;;;;6284003;22;20007;-75
2023/01/09 20:59:15;;;;;;;2.47;1.40;;;7.40;99.90;;;;;;6311993;22;20003;-75
2023/01/09 21:01:42;;;;;;;2.67;1.13;;;7.40;99.90;;;;;;6284660;22;20013;-75
2023/01/09 21:04:08;;;;;;;4.07;1.52;;;7.30;99.90;;;;;;6312168;22;20003;-75
2023/01/09 21:06:34;;;;;;;3.53;1.23;;;7.30;99.90;;;;;;6311684;22;20055;-75
2023/01/09 21:09:00;;;;;;;3.08;1.10;;;7.30;99.90;;;;;;6310730;22;19995;-75
2023/01/09 21:11:26;;;;;;;6.40;1.45;;;7.30;99.90;;;;;;6309462;22;19999;-75
2023/01/09 21:13:52;;;;;;;3.30;1.40;;;7.20;99.90;;;;;;6283577;22;20003;-76
2023/01/09 21:16:20;;;;;;;2.67;1.10;;;7.20;99.90;;;;;;6310466;22;20019;-76
2023/01/09 21:18:47;;;;;;;2.72;1.15;;;7.20;99.90;;;;;;6283280;22;20007;-76
2023/01/09 21:21:16;;;;;;;5.20;1.45;;;7.20;99.90;;;;;;6283886;22;20003;-76
2023/01/09 21:23:50;;;;;;;4.15;1.35;;;7.20;99.90;;;;;;6310449;22;20014;-76
2023/01/09 21:26:21;;;;;;;3.88;1.58;;;7.20;99.90;;;;;;6284342;22;20074;-77
2023/01/09 21:28:50;;;;;;;4.40;1.30;;;7.20;99.90;;;;;;6281631;22;20003;-76
2023/01/09 21:31:19;;;;;;;3.47;1.30;;;7.10;99.90;;;;;;6284124;22;20041;-77
2023/01/09 21:33:45;;;;;;;4.15;1.40;;;7.20;99.90;;;;;;6312366;22;20052;-78
2023/01/09 21:36:11;;;;;;;4.30;1.48;;;7.10;99.90;;;;;;6313027;22;20003;-77
2023/01/09 21:38:37;;;;;;;2.10;1.20;;;7.10;99.90;;;;;;6313137;22;20005;-76
2023/01/09 21:46:50;;;;;;;4.38;1.40;;;7.10;99.90;;;;;;6264613;22;20000;-75
2023/01/09 21:49:16;;;;;;;3.15;1.25;;;7.10;99.90;;;;;;6286099;22;20025;-76
2023/01/09 21:51:42;;;;;;;5.60;1.50;;;7.10;99.90;;;;;;6312751;22;20003;-76
2023/01/09 21:54:08;;;;;;;4.22;1.60;;;7.10;99.90;;;;;;6312198;22;20027;-76
2023/01/09 21:56:34;;;;;;;3.30;1.40;;;7.10;99.90;;;;;;6312288;22;20003;-75
2023/01/09 21:59:00;;;;;;;5.95;1.65;;;7.10;99.90;;;;;;6285425;22;20026;-76
2023/01/09 22:01:26;;;;;;;6.40;1.58;;;7.10;99.90;;;;;;6312729;22;20154;-75
2023/01/09 22:03:55;;;;;;;3.63;1.27;;;7.10;99.90;;;;;;6285064;22;20007;-77
2023/01/09 22:06:21;;;;;;;3.90;1.27;;;7.10;99.90;;;;;;6312416;22;20315;-77